sensor_id;sensor_type;location;lat;lon;timestamp;P1;durP1;ratioP1;P2;durP2;ratioP2
30888;SDS011;51092;50.874;7.024;2023-06-10T00:00:57;8.07;;;7.25;;
30888;SDS011;51092;50.874;7.024;2023-06-10T00:02:00;8.25;;;7.43;;
30888;SDS011;51092;50.874;7.024;2023-06-10T00:03:01;9.48;;;7.18;;
30888;SDS011;51092;50.874;7.024;2023-06-10T00:04:04;8.30;;;6.68;;
30888;SDS011;51092;50.874;7.024;2023-06-10T00:05:06;12.07;;;7.47;;
30888;SDS011;51092;50.874;7.024;2023-06-10T00:06:12;8.63;;;6.90;;
30888;SDS011;51092;50.874;7.024;2023-06-10T00:07:13;8.50;;;7.05;;
30888;SDS011;51092;50.874;7.024;2023-06-10T00:08:15;8.43;;;6.72;;
30888;SDS011;51092;50.874;7.024;2023-06-10T00:09:20;7.80;;;7.10;;
30888;SDS011;51092;50.874;7.024;2023-06-10T00:10:24;8.32;;;7.00;;
30888;SDS011;51092;50.874;7.024;2023-06-10T00:11:26;11.77;;;8.52;;
30888;SDS011;51092;50.874;7.024;2023-06-10T00:12:30;9.98;;;7.50;;
30888;SDS011;51092;50.874;7.024;2023-06-10T00:13:31;10.05;;;7.78;;
30888;SDS011;51092;50.874;7.024;2023-06-10T00:14:34;9.57;;;8.02;;
30888;SDS011;51092;50.874;7.024;2023-06-10T00:15:37;8.32;;;7.10;;
30888;SDS011;51092;50.874;7.024;2023-06-10T00:16:40;12.05;;;7.70;;
30888;SDS011;51092;50.874;7.024;2023-06-10T00:17:45;10.40;;;7.28;;
30888;SDS011;51092;50.874;7.024;2023-06-10T00:18:47;10.55;;;7.82;;
30888;SDS011;51092;50.874;7.024;2023-06-10T00:19:49;9.02;;;7.72;;
30888;SDS011;51092;50.874;7.024;2023-06-10T00:20:51;9.20;;;8.25;;
30888;SDS011;51092;50.874;7.024;2023-06-10T00:21:57;8.25;;;7.32;;
30888;SDS011;51092;50.874;7.024;2023-06-10T00:22:58;8.52;;;7.72;;
30888;SDS011;51092;50.874;7.024;2023-06-10T00:24:02;10.65;;;7.43;;
30888;SDS011;51092;50.874;7.024;2023-06-10T00:25:04;10.35;;;7.90;;
30888;SDS011;51092;50.874;7.024;2023-06-10T00:26:07;14.48;;;8.48;;
30888;SDS011;51092;50.874;7.024;2023-06-10T00:27:09;8.38;;;7.28;;
30888;SDS011;51092;50.874;7.024;2023-06-10T00:28:11;9.88;;;7.13;;
30888;SDS011;51092;50.874;7.024;2023-06-10T00:29:14;7.93;;;7.15;;
30888;SDS011;51092;50.874;7.024;2023-06-10T00:30:16;8.93;;;8.02;;
30888;SDS011;51092;50.874;7.024;2023-06-10T00:31:18;10.48;;;7.78;;
30888;SDS011;51092;50.874;7.024;2023-06-10T00:32:21;10.25;;;8.00;;
30888;SDS011;51092;50.874;7.024;2023-06-10T00:33:22;9.02;;;8.00;;
30888;SDS011;51092;50.874;7.024;2023-06-10T00:34:25;7.97;;;6.93;;
30888;SDS011;51092;50.874;7.024;2023-06-10T00:35:26;9.23;;;7.65;;
30888;SDS011;51092;50.874;7.024;2023-06-10T00:36:29;7.88;;;7.18;;
30888;SDS011;51092;50.874;7.024;2023-06-10T00:37:32;8.35;;;7.47;;
30888;SDS011;51092;50.874;7.024;2023-06-10T00:38:36;8.40;;;7.60;;
30888;SDS011;51092;50.874;7.024;2023-06-10T00:39:38;9.95;;;8.27;;
30888;SDS011;51092;50.874;7.024;2023-06-10T00:40:40;7.50;;;6.85;;
30888;SDS011;51092;50.874;7.024;2023-06-10T00:41:42;10.60;;;8.48;;
30888;SDS011;51092;50.874;7.024;2023-06-10T00:42:44;9.40;;;8.05;;
30888;SDS011;51092;50.874;7.024;2023-06-10T00:43:46;11.20;;;7.63;;
30888;SDS011;51092;50.874;7.024;2023-06-10T00:44:49;15.38;;;7.82;;
30888;SDS011;51092;50.874;7.024;2023-06-10T00:45:51;9.80;;;8.40;;
30888;SDS011;51092;50.874;7.024;2023-06-10T00:46:54;13.40;;;8.93;;
30888;SDS011;51092;50.874;7.024;2023-06-10T00:47:56;9.13;;;7.72;;
30888;SDS011;51092;50.874;7.024;2023-06-10T00:49:00;10.93;;;8.15;;
30888;SDS011;51092;50.874;7.024;2023-06-10T00:50:01;8.73;;;7.57;;
30888;SDS011;51092;50.874;7.024;2023-06-10T00:51:06;11.38;;;8.85;;
30888;SDS011;51092;50.874;7.024;2023-06-10T00:52:09;9.80;;;8.77;;
30888;SDS011;51092;50.874;7.024;2023-06-10T00:53:14;10.40;;;9.35;;
30888;SDS011;51092;50.874;7.024;2023-06-10T00:54:15;12.60;;;9.55;;
30888;SDS011;51092;50.874;7.024;2023-06-10T00:55:18;8.90;;;8.10;;
30888;SDS011;51092;50.874;7.024;2023-06-10T00:56:20;12.40;;;8.20;;
30888;SDS011;51092;50.874;7.024;2023-06-10T00:57:23;10.13;;;8.63;;
30888;SDS011;51092;50.874;7.024;2023-06-10T00:58:26;11.57;;;9.13;;
30888;SDS011;51092;50.874;7.024;2023-06-10T00:59:28;11.18;;;9.15;;
30888;SDS011;51092;50.874;7.024;2023-06-10T01:00:31;9.65;;;8.60;;
30888;SDS011;51092;50.874;7.024;2023-06-10T01:01:33;8.88;;;8.07;;
30888;SDS011;51092;50.874;7.024;2023-06-10T01:02:38;10.75;;;9.50;;
30888;SDS011;51092;50.874;7.024;2023-06-10T01:03:39;10.07;;;8.10;;
30888;SDS011;51092;50.874;7.024;2023-06-10T01:04:42;9.95;;;8.95;;
30888;SDS011;51092;50.874;7.024;2023-06-10T01:05:44;13.48;;;10.00;;
30888;SDS011;51092;50.874;7.024;2023-06-10T01:06:54;9.68;;;8.68;;
30888;SDS011;51092;50.874;7.024;2023-06-10T01:08:07;9.43;;;8.60;;
30888;SDS011;51092;50.874;7.024;2023-06-10T01:09:21;9.43;;;8.50;;
30888;SDS011;51092;50.874;7.024;2023-06-10T01:10:29;9.98;;;8.98;;
30888;SDS011;51092;50.874;7.024;2023-06-10T01:11:36;9.95;;;8.82;;
30888;SDS011;51092;50.874;7.024;2023-06-10T01:12:45;9.48;;;8.57;;
30888;SDS011;51092;50.874;7.024;2023-06-10T01:14:03;9.98;;;8.38;;
30888;SDS011;51092;50.874;7.024;2023-06-10T01:15:06;11.02;;;8.00;;
30888;SDS011;51092;50.874;7.024;2023-06-10T01:16:10;9.50;;;8.55;;
30888;SDS011;51092;50.874;7.024;2023-06-10T01:17:12;10.75;;;8.57;;
30888;SDS011;51092;50.874;7.024;2023-06-10T01:18:17;10.20;;;9.18;;
30888;SDS011;51092;50.874;7.024;2023-06-10T01:19:18;10.55;;;9.55;;
30888;SDS011;51092;50.874;7.024;2023-06-10T01:20:25;10.82;;;9.82;;
30888;SDS011;51092;50.874;7.024;2023-06-10T01:21:29;11.73;;;10.52;;
30888;SDS011;51092;50.874;7.024;2023-06-10T01:22:31;11.25;;;9.73;;
30888;SDS011;51092;50.874;7.024;2023-06-10T01:23:37;14.02;;;10.35;;
30888;SDS011;51092;50.874;7.024;2023-06-10T01:24:39;11.15;;;10.05;;
30888;SDS011;51092;50.874;7.024;2023-06-10T01:25:41;11.82;;;9.70;;
30888;SDS011;51092;50.874;7.024;2023-06-10T01:26:49;11.60;;;9.88;;
30888;SDS011;51092;50.874;7.024;2023-06-10T01:27:52;14.32;;;10.32;;
30888;SDS011;51092;50.874;7.024;2023-06-10T01:28:58;10.60;;;9.60;;
30888;SDS011;51092;50.874;7.024;2023-06-10T01:30:07;9.70;;;8.63;;
30888;SDS011;51092;50.874;7.024;2023-06-10T01:31:15;10.63;;;9.18;;
30888;SDS011;51092;50.874;7.024;2023-06-10T01:32:23;11.95;;;10.43;;
30888;SDS011;51092;50.874;7.024;2023-06-10T01:33:31;11.13;;;9.77;;
30888;SDS011;51092;50.874;7.024;2023-06-10T01:34:36;14.43;;;9.65;;
30888;SDS011;51092;50.874;7.024;2023-06-10T01:35:41;10.95;;;9.18;;
30888;SDS011;51092;50.874;7.024;2023-06-10T01:36:48;11.27;;;9.02;;
30888;SDS011;51092;50.874;7.024;2023-06-10T01:37:53;11.88;;;9.43;;
30888;SDS011;51092;50.874;7.024;2023-06-10T01:38:56;11.63;;;9.77;;
30888;SDS011;51092;50.874;7.024;2023-06-10T01:40:02;10.45;;;9.32;;
30888;SDS011;51092;50.874;7.024;2023-06-10T01:41:06;11.30;;;10.30;;
30888;SDS011;51092;50.874;7.024;2023-06-10T01:42:10;11.02;;;9.75;;
30888;SDS011;51092;50.874;7.024;2023-06-10T01:43:12;16.63;;;10.88;;
30888;SDS011;51092;50.874;7.024;2023-06-10T01:44:17;12.23;;;10.88;;
30888;SDS011;51092;50.874;7.024;2023-06-10T01:45:19;12.88;;;11.18;;
30888;SDS011;51092;50.874;7.024;2023-06-10T01:46:21;11.50;;;10.30;;
30888;SDS011;51092;50.874;7.024;2023-06-10T01:47:23;13.70;;;10.50;;
30888;SDS011;51092;50.874;7.024;2023-06-10T01:48:26;11.55;;;10.30;;
30888;SDS011;51092;50.874;7.024;2023-06-10T01:49:27;11.80;;;10.20;;
30888;SDS011;51092;50.874;7.024;2023-06-10T01:50:30;11.50;;;9.82;;
30888;SDS011;51092;50.874;7.024;2023-06-10T01:51:31;11.07;;;9.98;;
30888;SDS011;51092;50.874;7.024;2023-06-10T01:52:35;11.85;;;10.65;;
30888;SDS011;51092;50.874;7.024;2023-06-10T01:53:38;12.40;;;10.57;;
30888;SDS011;51092;50.874;7.024;2023-06-10T01:54:40;12.13;;;9.95;;
30888;SDS011;51092;50.874;7.024;2023-06-10T01:55:41;11.32;;;9.77;;
30888;SDS011;51092;50.874;7.024;2023-06-10T01:56:44;13.32;;;10.23;;
30888;SDS011;51092;50.874;7.024;2023-06-10T01:57:45;11.18;;;10.15;;
30888;SDS011;51092;50.874;7.024;2023-06-10T01:58:48;12.82;;;10.25;;
30888;SDS011;51092;50.874;7.024;2023-06-10T01:59:49;11.43;;;10.32;;
30888;SDS011;51092;50.874;7.024;2023-06-10T02:00:52;11.57;;;10.45;;
30888;SDS011;51092;50.874;7.024;2023-06-10T02:01:53;12.80;;;11.43;;
30888;SDS011;51092;50.874;7.024;2023-06-10T02:02:56;11.55;;;10.35;;
30888;SDS011;51092;50.874;7.024;2023-06-10T02:03:57;11.60;;;9.85;;
30888;SDS011;51092;50.874;7.024;2023-06-10T02:04:59;11.45;;;10.15;;
30888;SDS011;51092;50.874;7.024;2023-06-10T02:06:01;19.98;;;10.82;;
30888;SDS011;51092;50.874;7.024;2023-06-10T02:07:04;12.93;;;10.38;;
30888;SDS011;51092;50.874;7.024;2023-06-10T02:08:07;11.32;;;10.23;;
30888;SDS011;51092;50.874;7.024;2023-06-10T02:09:10;10.95;;;9.70;;
30888;SDS011;51092;50.874;7.024;2023-06-10T02:10:11;11.25;;;10.25;;
30888;SDS011;51092;50.874;7.024;2023-06-10T02:11:14;12.27;;;10.15;;
30888;SDS011;51092;50.874;7.024;2023-06-10T02:12:15;11.82;;;10.55;;
30888;SDS011;51092;50.874;7.024;2023-06-10T02:13:18;11.57;;;10.45;;
30888;SDS011;51092;50.874;7.024;2023-06-10T02:14:19;12.63;;;10.38;;
30888;SDS011;51092;50.874;7.024;2023-06-10T02:15:22;11.05;;;9.57;;
30888;SDS011;51092;50.874;7.024;2023-06-10T02:16:23;11.35;;;10.15;;
30888;SDS011;51092;50.874;7.024;2023-06-10T02:17:27;11.38;;;10.27;;
30888;SDS011;51092;50.874;7.024;2023-06-10T02:18:30;10.95;;;9.85;;
30888;SDS011;51092;50.874;7.024;2023-06-10T02:19:32;12.27;;;11.02;;
30888;SDS011;51092;50.874;7.024;2023-06-10T02:20:37;11.40;;;10.02;;
30888;SDS011;51092;50.874;7.024;2023-06-10T02:21:39;13.70;;;12.10;;
30888;SDS011;51092;50.874;7.024;2023-06-10T02:22:41;12.57;;;11.25;;
30888;SDS011;51092;50.874;7.024;2023-06-10T02:23:45;13.82;;;10.80;;
30888;SDS011;51092;50.874;7.024;2023-06-10T02:24:46;12.48;;;11.05;;
30888;SDS011;51092;50.874;7.024;2023-06-10T02:25:49;12.38;;;10.80;;
30888;SDS011;51092;50.874;7.024;2023-06-10T02:26:50;10.75;;;9.65;;
30888;SDS011;51092;50.874;7.024;2023-06-10T02:27:54;13.60;;;12.20;;
30888;SDS011;51092;50.874;7.024;2023-06-10T02:28:55;12.70;;;11.40;;
30888;SDS011;51092;50.874;7.024;2023-06-10T02:29:58;11.18;;;10.10;;
30888;SDS011;51092;50.874;7.024;2023-06-10T02:30:59;13.60;;;12.30;;
30888;SDS011;51092;50.874;7.024;2023-06-10T02:32:02;12.35;;;11.18;;
30888;SDS011;51092;50.874;7.024;2023-06-10T02:33:04;12.90;;;11.65;;
30888;SDS011;51092;50.874;7.024;2023-06-10T02:34:10;12.48;;;11.18;;
30888;SDS011;51092;50.874;7.024;2023-06-10T02:35:11;12.77;;;11.55;;
30888;SDS011;51092;50.874;7.024;2023-06-10T02:36:14;13.10;;;11.88;;
30888;SDS011;51092;50.874;7.024;2023-06-10T02:37:16;12.82;;;11.63;;
30888;SDS011;51092;50.874;7.024;2023-06-10T02:38:18;12.75;;;11.50;;
30888;SDS011;51092;50.874;7.024;2023-06-10T02:39:22;12.80;;;11.52;;
30888;SDS011;51092;50.874;7.024;2023-06-10T02:40:24;13.68;;;12.43;;
30888;SDS011;51092;50.874;7.024;2023-06-10T02:41:26;12.77;;;11.48;;
30888;SDS011;51092;50.874;7.024;2023-06-10T02:42:27;12.07;;;10.95;;
30888;SDS011;51092;50.874;7.024;2023-06-10T02:43:30;12.13;;;11.02;;
30888;SDS011;51092;50.874;7.024;2023-06-10T02:44:31;12.73;;;11.10;;
30888;SDS011;51092;50.874;7.024;2023-06-10T02:45:34;11.98;;;10.85;;
30888;SDS011;51092;50.874;7.024;2023-06-10T02:46:35;13.32;;;11.13;;
30888;SDS011;51092;50.874;7.024;2023-06-10T02:47:37;12.77;;;11.25;;
30888;SDS011;51092;50.874;7.024;2023-06-10T02:48:43;12.20;;;11.05;;
30888;SDS011;51092;50.874;7.024;2023-06-10T02:49:45;11.93;;;10.90;;
30888;SDS011;51092;50.874;7.024;2023-06-10T02:50:47;11.88;;;10.65;;
30888;SDS011;51092;50.874;7.024;2023-06-10T02:51:49;11.32;;;10.23;;
30888;SDS011;51092;50.874;7.024;2023-06-10T02:52:54;12.55;;;11.32;;
30888;SDS011;51092;50.874;7.024;2023-06-10T02:53:56;12.25;;;11.00;;
30888;SDS011;51092;50.874;7.024;2023-06-10T02:54:58;14.50;;;11.07;;
30888;SDS011;51092;50.874;7.024;2023-06-10T02:56:00;12.55;;;10.60;;
30888;SDS011;51092;50.874;7.024;2023-06-10T02:57:01;12.13;;;10.80;;
30888;SDS011;51092;50.874;7.024;2023-06-10T02:58:03;13.63;;;11.32;;
30888;SDS011;51092;50.874;7.024;2023-06-10T02:59:05;12.30;;;11.10;;
30888;SDS011;51092;50.874;7.024;2023-06-10T03:00:08;14.43;;;11.98;;
30888;SDS011;51092;50.874;7.024;2023-06-10T03:01:11;11.77;;;10.57;;
30888;SDS011;51092;50.874;7.024;2023-06-10T03:02:14;13.00;;;11.80;;
30888;SDS011;51092;50.874;7.024;2023-06-10T03:03:16;15.32;;;11.68;;
30888;SDS011;51092;50.874;7.024;2023-06-10T03:04:19;12.60;;;11.30;;
30888;SDS011;51092;50.874;7.024;2023-06-10T03:05:21;13.20;;;10.85;;
30888;SDS011;51092;50.874;7.024;2023-06-10T03:06:23;12.00;;;10.90;;
30888;SDS011;51092;50.874;7.024;2023-06-10T03:07:25;12.80;;;11.60;;
30888;SDS011;51092;50.874;7.024;2023-06-10T03:08:28;12.88;;;11.68;;
30888;SDS011;51092;50.874;7.024;2023-06-10T03:09:29;13.27;;;11.70;;
30888;SDS011;51092;50.874;7.024;2023-06-10T03:10:33;18.92;;;13.40;;
30888;SDS011;51092;50.874;7.024;2023-06-10T03:11:35;14.55;;;12.70;;
30888;SDS011;51092;50.874;7.024;2023-06-10T03:12:38;13.05;;;11.63;;
30888;SDS011;51092;50.874;7.024;2023-06-10T03:13:39;14.65;;;13.15;;
30888;SDS011;51092;50.874;7.024;2023-06-10T03:14:42;16.25;;;12.60;;
30888;SDS011;51092;50.874;7.024;2023-06-10T03:15:43;14.18;;;12.77;;
30888;SDS011;51092;50.874;7.024;2023-06-10T03:16:46;14.43;;;12.32;;
30888;SDS011;51092;50.874;7.024;2023-06-10T03:17:48;16.77;;;12.65;;
30888;SDS011;51092;50.874;7.024;2023-06-10T03:18:50;11.85;;;10.77;;
30888;SDS011;51092;50.874;7.024;2023-06-10T03:19:52;13.35;;;12.02;;
30888;SDS011;51092;50.874;7.024;2023-06-10T03:20:55;13.40;;;12.00;;
30888;SDS011;51092;50.874;7.024;2023-06-10T03:21:57;12.90;;;11.70;;
30888;SDS011;51092;50.874;7.024;2023-06-10T03:23:08;12.68;;;11.38;;
30888;SDS011;51092;50.874;7.024;2023-06-10T03:24:10;13.38;;;11.23;;
30888;SDS011;51092;50.874;7.024;2023-06-10T03:25:13;15.90;;;13.30;;
30888;SDS011;51092;50.874;7.024;2023-06-10T03:26:15;13.90;;;12.55;;
30888;SDS011;51092;50.874;7.024;2023-06-10T03:27:18;16.80;;;13.10;;
30888;SDS011;51092;50.874;7.024;2023-06-10T03:28:20;13.13;;;11.85;;
30888;SDS011;51092;50.874;7.024;2023-06-10T03:29:22;13.50;;;12.25;;
30888;SDS011;51092;50.874;7.024;2023-06-10T03:30:24;15.93;;;12.02;;
30888;SDS011;51092;50.874;7.024;2023-06-10T03:31:27;13.95;;;12.38;;
30888;SDS011;51092;50.874;7.024;2023-06-10T03:32:28;15.38;;;12.60;;
30888;SDS011;51092;50.874;7.024;2023-06-10T03:33:31;13.88;;;12.55;;
30888;SDS011;51092;50.874;7.024;2023-06-10T03:34:33;14.00;;;12.50;;
30888;SDS011;51092;50.874;7.024;2023-06-10T03:35:35;14.20;;;12.05;;
30888;SDS011;51092;50.874;7.024;2023-06-10T03:36:37;17.15;;;12.15;;
30888;SDS011;51092;50.874;7.024;2023-06-10T03:37:43;14.93;;;13.35;;
30888;SDS011;51092;50.874;7.024;2023-06-10T03:38:44;13.77;;;12.60;;
30888;SDS011;51092;50.874;7.024;2023-06-10T03:39:47;13.45;;;12.15;;
30888;SDS011;51092;50.874;7.024;2023-06-10T03:40:48;17.73;;;12.75;;
30888;SDS011;51092;50.874;7.024;2023-06-10T03:41:52;13.55;;;12.27;;
30888;SDS011;51092;50.874;7.024;2023-06-10T03:42:54;12.88;;;11.75;;
30888;SDS011;51092;50.874;7.024;2023-06-10T03:43:56;13.52;;;12.32;;
30888;SDS011;51092;50.874;7.024;2023-06-10T03:44:58;13.30;;;11.90;;
30888;SDS011;51092;50.874;7.024;2023-06-10T03:46:00;14.38;;;12.95;;
30888;SDS011;51092;50.874;7.024;2023-06-10T03:47:02;14.82;;;13.38;;
30888;SDS011;51092;50.874;7.024;2023-06-10T03:48:04;13.95;;;12.23;;
30888;SDS011;51092;50.874;7.024;2023-06-10T03:49:07;13.60;;;12.40;;
30888;SDS011;51092;50.874;7.024;2023-06-10T03:50:10;15.27;;;12.63;;
30888;SDS011;51092;50.874;7.024;2023-06-10T03:51:11;13.52;;;12.25;;
30888;SDS011;51092;50.874;7.024;2023-06-10T03:52:13;12.63;;;11.20;;
30888;SDS011;51092;50.874;7.024;2023-06-10T03:53:15;13.40;;;12.10;;
30888;SDS011;51092;50.874;7.024;2023-06-10T03:54:17;16.20;;;11.30;;
30888;SDS011;51092;50.874;7.024;2023-06-10T03:55:19;13.20;;;11.90;;
30888;SDS011;51092;50.874;7.024;2023-06-10T03:56:22;13.43;;;11.98;;
30888;SDS011;51092;50.874;7.024;2023-06-10T03:57:25;14.43;;;11.50;;
30888;SDS011;51092;50.874;7.024;2023-06-10T03:58:28;13.02;;;11.75;;
30888;SDS011;51092;50.874;7.024;2023-06-10T03:59:29;13.45;;;12.25;;
30888;SDS011;51092;50.874;7.024;2023-06-10T04:00:32;12.52;;;11.25;;
30888;SDS011;51092;50.874;7.024;2023-06-10T04:01:42;13.50;;;11.50;;
30888;SDS011;51092;50.874;7.024;2023-06-10T04:02:44;13.07;;;11.85;;
30888;SDS011;51092;50.874;7.024;2023-06-10T04:03:48;12.90;;;11.68;;
30888;SDS011;51092;50.874;7.024;2023-06-10T04:04:51;14.10;;;12.13;;
30888;SDS011;51092;50.874;7.024;2023-06-10T04:05:54;13.80;;;12.25;;
30888;SDS011;51092;50.874;7.024;2023-06-10T04:06:55;15.13;;;12.13;;
30888;SDS011;51092;50.874;7.024;2023-06-10T04:07:58;17.13;;;12.13;;
30888;SDS011;51092;50.874;7.024;2023-06-10T04:09:00;15.73;;;13.52;;
30888;SDS011;51092;50.874;7.024;2023-06-10T04:10:04;14.05;;;11.75;;
30888;SDS011;51092;50.874;7.024;2023-06-10T04:11:06;13.32;;;12.02;;
30888;SDS011;51092;50.874;7.024;2023-06-10T04:12:09;13.30;;;12.00;;
30888;SDS011;51092;50.874;7.024;2023-06-10T04:13:12;14.00;;;12.70;;
30888;SDS011;51092;50.874;7.024;2023-06-10T04:14:15;13.50;;;12.30;;
30888;SDS011;51092;50.874;7.024;2023-06-10T04:15:17;14.10;;;12.73;;
30888;SDS011;51092;50.874;7.024;2023-06-10T04:16:20;14.85;;;12.85;;
30888;SDS011;51092;50.874;7.024;2023-06-10T04:17:21;14.73;;;12.95;;
30888;SDS011;51092;50.874;7.024;2023-06-10T04:18:24;14.43;;;13.02;;
30888;SDS011;51092;50.874;7.024;2023-06-10T04:19:26;13.95;;;12.65;;
30888;SDS011;51092;50.874;7.024;2023-06-10T04:20:29;13.73;;;12.43;;
30888;SDS011;51092;50.874;7.024;2023-06-10T04:21:30;13.75;;;12.45;;
30888;SDS011;51092;50.874;7.024;2023-06-10T04:22:33;13.52;;;12.13;;
30888;SDS011;51092;50.874;7.024;2023-06-10T04:23:35;13.23;;;11.57;;
30888;SDS011;51092;50.874;7.024;2023-06-10T04:24:40;14.23;;;12.93;;
30888;SDS011;51092;50.874;7.024;2023-06-10T04:25:42;12.88;;;11.57;;
30888;SDS011;51092;50.874;7.024;2023-06-10T04:26:44;12.57;;;11.38;;
30888;SDS011;51092;50.874;7.024;2023-06-10T04:27:46;14.27;;;12.88;;
30888;SDS011;51092;50.874;7.024;2023-06-10T04:28:50;13.45;;;12.15;;
30888;SDS011;51092;50.874;7.024;2023-06-10T04:29:52;12.60;;;11.40;;
30888;SDS011;51092;50.874;7.024;2023-06-10T04:30:54;14.23;;;12.93;;
30888;SDS011;51092;50.874;7.024;2023-06-10T04:31:56;12.90;;;11.60;;
30888;SDS011;51092;50.874;7.024;2023-06-10T04:32:58;11.98;;;10.88;;
30888;SDS011;51092;50.874;7.024;2023-06-10T04:34:00;14.50;;;11.40;;
30888;SDS011;51092;50.874;7.024;2023-06-10T04:35:02;13.02;;;11.77;;
30888;SDS011;51092;50.874;7.024;2023-06-10T04:36:05;15.13;;;11.27;;
30888;SDS011;51092;50.874;7.024;2023-06-10T04:37:08;12.23;;;11.18;;
30888;SDS011;51092;50.874;7.024;2023-06-10T04:38:10;12.40;;;11.13;;
30888;SDS011;51092;50.874;7.024;2023-06-10T04:39:13;16.05;;;11.15;;
30888;SDS011;51092;50.874;7.024;2023-06-10T04:40:17;14.02;;;11.57;;
30888;SDS011;51092;50.874;7.024;2023-06-10T04:41:20;15.75;;;10.88;;
30888;SDS011;51092;50.874;7.024;2023-06-10T04:42:23;11.90;;;9.57;;
30888;SDS011;51092;50.874;7.024;2023-06-10T04:43:25;10.93;;;9.75;;
30888;SDS011;51092;50.874;7.024;2023-06-10T04:44:30;10.65;;;9.55;;
30888;SDS011;51092;50.874;7.024;2023-06-10T04:45:32;10.55;;;9.10;;
30888;SDS011;51092;50.874;7.024;2023-06-10T04:46:34;10.65;;;9.57;;
30888;SDS011;51092;50.874;7.024;2023-06-10T04:47:36;10.18;;;8.57;;
30888;SDS011;51092;50.874;7.024;2023-06-10T04:48:38;12.10;;;9.23;;
30888;SDS011;51092;50.874;7.024;2023-06-10T04:49:42;9.70;;;8.73;;
30888;SDS011;51092;50.874;7.024;2023-06-10T04:50:44;10.52;;;9.43;;
30888;SDS011;51092;50.874;7.024;2023-06-10T04:51:47;11.00;;;9.25;;
30888;SDS011;51092;50.874;7.024;2023-06-10T04:52:48;12.23;;;9.23;;
30888;SDS011;51092;50.874;7.024;2023-06-10T04:53:51;12.55;;;9.30;;
30888;SDS011;51092;50.874;7.024;2023-06-10T04:54:53;10.48;;;8.75;;
30888;SDS011;51092;50.874;7.024;2023-06-10T04:55:56;11.00;;;9.18;;
30888;SDS011;51092;50.874;7.024;2023-06-10T04:56:58;11.02;;;8.00;;
30888;SDS011;51092;50.874;7.024;2023-06-10T04:58:01;10.75;;;9.00;;
30888;SDS011;51092;50.874;7.024;2023-06-10T04:59:02;9.95;;;8.90;;
30888;SDS011;51092;50.874;7.024;2023-06-10T05:00:07;10.85;;;8.98;;
30888;SDS011;51092;50.874;7.024;2023-06-10T05:01:09;10.60;;;9.30;;
30888;SDS011;51092;50.874;7.024;2023-06-10T05:02:11;8.77;;;7.88;;
30888;SDS011;51092;50.874;7.024;2023-06-10T05:03:13;9.38;;;8.38;;
30888;SDS011;51092;50.874;7.024;2023-06-10T05:04:15;9.07;;;7.63;;
30888;SDS011;51092;50.874;7.024;2023-06-10T05:05:17;9.05;;;8.07;;
30888;SDS011;51092;50.874;7.024;2023-06-10T05:06:20;8.93;;;8.10;;
30888;SDS011;51092;50.874;7.024;2023-06-10T05:07:22;9.55;;;7.75;;
30888;SDS011;51092;50.874;7.024;2023-06-10T05:08:24;9.70;;;8.18;;
30888;SDS011;51092;50.874;7.024;2023-06-10T05:09:26;12.38;;;8.55;;
30888;SDS011;51092;50.874;7.024;2023-06-10T05:10:28;12.07;;;8.32;;
30888;SDS011;51092;50.874;7.024;2023-06-10T05:11:32;11.38;;;8.88;;
30888;SDS011;51092;50.874;7.024;2023-06-10T05:12:33;9.13;;;8.13;;
30888;SDS011;51092;50.874;7.024;2023-06-10T05:13:36;9.20;;;7.85;;
30888;SDS011;51092;50.874;7.024;2023-06-10T05:14:37;9.02;;;8.10;;
30888;SDS011;51092;50.874;7.024;2023-06-10T05:15:41;12.38;;;8.70;;
30888;SDS011;51092;50.874;7.024;2023-06-10T05:16:45;10.13;;;8.20;;
30888;SDS011;51092;50.874;7.024;2023-06-10T05:17:47;9.10;;;7.80;;
30888;SDS011;51092;50.874;7.024;2023-06-10T05:18:49;8.65;;;7.78;;
30888;SDS011;51092;50.874;7.024;2023-06-10T05:19:53;10.35;;;8.88;;
30888;SDS011;51092;50.874;7.024;2023-06-10T05:20:54;8.80;;;7.97;;
30888;SDS011;51092;50.874;7.024;2023-06-10T05:21:57;8.32;;;7.30;;
30888;SDS011;51092;50.874;7.024;2023-06-10T05:22:58;12.18;;;8.00;;
30888;SDS011;51092;50.874;7.024;2023-06-10T05:24:01;9.27;;;7.30;;
30888;SDS011;51092;50.874;7.024;2023-06-10T05:25:03;8.73;;;7.82;;
30888;SDS011;51092;50.874;7.024;2023-06-10T05:26:05;8.85;;;7.82;;
30888;SDS011;51092;50.874;7.024;2023-06-10T05:27:07;11.10;;;8.02;;
30888;SDS011;51092;50.874;7.024;2023-06-10T05:28:10;8.88;;;7.70;;
30888;SDS011;51092;50.874;7.024;2023-06-10T05:29:12;11.68;;;8.05;;
30888;SDS011;51092;50.874;7.024;2023-06-10T05:30:16;9.90;;;7.97;;
30888;SDS011;51092;50.874;7.024;2023-06-10T05:31:20;9.88;;;7.40;;
30888;SDS011;51092;50.874;7.024;2023-06-10T05:32:23;8.77;;;7.88;;
30888;SDS011;51092;50.874;7.024;2023-06-10T05:33:24;10.23;;;8.13;;
30888;SDS011;51092;50.874;7.024;2023-06-10T05:34:27;8.57;;;7.70;;
30888;SDS011;51092;50.874;7.024;2023-06-10T05:35:28;9.93;;;8.32;;
30888;SDS011;51092;50.874;7.024;2023-06-10T05:36:31;10.80;;;8.70;;
30888;SDS011;51092;50.874;7.024;2023-06-10T05:37:33;10.60;;;8.25;;
30888;SDS011;51092;50.874;7.024;2023-06-10T05:38:37;11.60;;;7.85;;
30888;SDS011;51092;50.874;7.024;2023-06-10T05:39:39;10.15;;;8.20;;
30888;SDS011;51092;50.874;7.024;2023-06-10T05:40:41;11.65;;;7.90;;
30888;SDS011;51092;50.874;7.024;2023-06-10T05:41:43;12.13;;;7.90;;
30888;SDS011;51092;50.874;7.024;2023-06-10T05:42:45;10.48;;;7.93;;
30888;SDS011;51092;50.874;7.024;2023-06-10T05:43:47;11.45;;;7.97;;
30888;SDS011;51092;50.874;7.024;2023-06-10T05:44:49;11.95;;;7.78;;
30888;SDS011;51092;50.874;7.024;2023-06-10T05:45:51;10.43;;;7.32;;
30888;SDS011;51092;50.874;7.024;2023-06-10T05:46:55;17.08;;;7.68;;
30888;SDS011;51092;50.874;7.024;2023-06-10T05:47:56;9.10;;;8.20;;
30888;SDS011;51092;50.874;7.024;2023-06-10T05:48:59;7.90;;;7.10;;
30888;SDS011;51092;50.874;7.024;2023-06-10T05:50:00;13.95;;;8.10;;
30888;SDS011;51092;50.874;7.024;2023-06-10T05:51:03;9.57;;;7.78;;
30888;SDS011;51092;50.874;7.024;2023-06-10T05:52:05;9.25;;;7.95;;
30888;SDS011;51092;50.874;7.024;2023-06-10T05:53:08;8.18;;;7.38;;
30888;SDS011;51092;50.874;7.024;2023-06-10T05:54:15;10.65;;;7.80;;
30888;SDS011;51092;50.874;7.024;2023-06-10T05:55:18;8.77;;;7.18;;
30888;SDS011;51092;50.874;7.024;2023-06-10T05:56:19;9.45;;;7.53;;
30888;SDS011;51092;50.874;7.024;2023-06-10T05:57:23;9.32;;;7.30;;
30888;SDS011;51092;50.874;7.024;2023-06-10T05:58:24;8.27;;;6.95;;
30888;SDS011;51092;50.874;7.024;2023-06-10T05:59:27;7.93;;;6.97;;
30888;SDS011;51092;50.874;7.024;2023-06-10T06:00:29;10.05;;;7.20;;
30888;SDS011;51092;50.874;7.024;2023-06-10T06:01:30;8.27;;;7.25;;
30888;SDS011;51092;50.874;7.024;2023-06-10T06:02:34;7.78;;;6.97;;
30888;SDS011;51092;50.874;7.024;2023-06-10T06:03:36;12.65;;;8.48;;
30888;SDS011;51092;50.874;7.024;2023-06-10T06:04:38;8.15;;;7.25;;
30888;SDS011;51092;50.874;7.024;2023-06-10T06:05:40;9.05;;;7.80;;
30888;SDS011;51092;50.874;7.024;2023-06-10T06:06:45;8.00;;;7.18;;
30888;SDS011;51092;50.874;7.024;2023-06-10T06:07:47;8.30;;;7.38;;
30888;SDS011;51092;50.874;7.024;2023-06-10T06:08:49;12.80;;;6.88;;
30888;SDS011;51092;50.874;7.024;2023-06-10T06:09:52;8.32;;;7.47;;
30888;SDS011;51092;50.874;7.024;2023-06-10T06:10:53;10.25;;;7.10;;
30888;SDS011;51092;50.874;7.024;2023-06-10T06:11:57;7.82;;;6.75;;